Time;durP1;ratioP1;P1;durP2;ratioP2;P2;SDS_P1;SDS_P2;PMS_P1;PMS_P2;Temp;Humidity;BMP_temperature;BMP_pressure;BME280_temperature;BME280_humidity;BME280_pressure;Samples;Min_cycle;Max_cycle;Signal;HPM_P1;HPM_P2
2023/07/26 00:01:53;;;;;;;0.10;0.10;;;;;;;;;;6211729;22;20024;-91
2023/07/26 00:04:32;;;;;;;0.28;0.28;;;;;;;;;;6232900;22;20045;-90
2023/07/26 00:07:08;;;;;;;0.30;0.30;;;;;;;;;;6208158;22;20021;-90
2023/07/26 00:09:40;;;;;;;0.30;0.30;;;;;;;;;;6232510;23;20017;-90
2023/07/26 00:12:08;;;;;;;0.20;0.20;;;;;;;;;;6208160;23;20025;-91
2023/07/26 00:14:37;;;;;;;0.30;0.30;;;;;;;;;;6208345;23;20021;-88
2023/07/26 00:17:07;;;;;;;0.10;0.10;;;;;;;;;;6181273;23;20055;-87
2023/07/26 00:19:35;;;;;;;0.10;0.10;;;;;;;;;;6177911;22;20042;-87
2023/07/26 00:22:06;;;;;;;0.20;0.20;;;;;;;;;;6177992;22;20020;-86
2023/07/26 00:24:35;;;;;;;0.20;0.20;;;;;;;;;;6181229;23;20016;-88
2023/07/26 00:27:14;;;;;;;0.20;0.20;;;;;;;;;;6180663;23;20005;-87
2023/07/26 00:37:44;;;;;;;0.20;0.20;;;;;;;;;;6258693;22;20031;-87
2023/07/26 00:40:11;;;;;;;0.20;0.20;;;;;;;;;;6254701;23;20016;-87
2023/07/26 00:42:41;;;;;;;0.30;0.30;;;;;;;;;;6259805;23;20016;-88
2023/07/26 00:45:08;;;;;;;0.30;0.30;;;;;;;;;;6207697;23;20068;-88
2023/07/26 00:47:34;;;;;;;0.30;0.30;;;;;;;;;;6233271;23;20017;-87
2023/07/26 00:50:06;;;;;;;0.30;0.30;;;;;;;;;;6257474;22;20327;-86
2023/07/26 00:52:33;;;;;;;0.20;0.20;;;;;;;;;;6229069;23;20118;-87
2023/07/26 00:55:02;;;;;;;0.20;0.20;;;;;;;;;;6231276;22;20016;-86
2023/07/26 00:57:29;;;;;;;0.20;0.20;;;;;;;;;;6231516;22;20069;-84
2023/07/26 01:00:18;;;;;;;0.20;0.20;;;;;;;;;;6278755;22;20015;-88
2023/07/26 01:02:44;;;;;;;0.30;0.30;;;;;;;;;;6261802;22;20020;-86
2023/07/26 01:05:14;;;;;;;0.30;0.30;;;;;;;;;;6229704;22;20052;-85
2023/07/26 01:07:55;;;;;;;0.20;0.20;;;;;;;;;;6262268;22;20000;-81
2023/07/26 01:10:40;;;;;;;0.17;0.17;;;;;;;;;;6195963;22;20035;-82
2023/07/26 01:13:36;;;;;;;0.20;0.20;;;;;;;;;;6200401;22;20028;-86
2023/07/26 01:16:02;;;;;;;0.20;0.20;;;;;;;;;;6195124;22;20023;-86
2023/07/26 01:18:28;;;;;;;0.20;0.20;;;;;;;;;;6226775;23;20031;-87
2023/07/26 01:20:54;;;;;;;0.20;0.20;;;;;;;;;;6200916;23;20013;-84
2023/07/26 01:23:21;;;;;;;0.20;0.20;;;;;;;;;;6200304;23;20031;-84
2023/07/26 01:25:48;;;;;;;0.20;0.20;;;;;;;;;;6205555;22;20485;-87
2023/07/26 01:28:14;;;;;;;0.13;0.13;;;;;;;;;;6200437;23;20020;-86
2023/07/26 01:30:43;;;;;;;0.10;0.10;;;;;;;;;;6199034;22;20012;-86
2023/07/26 01:33:12;;;;;;;0.10;0.10;;;;;;;;;;6206146;23;20028;-89
2023/07/26 01:35:38;;;;;;;0.20;0.20;;;;;;;;;;6210462;22;20032;-93
2023/07/26 01:38:10;;;;;;;0.10;0.10;;;;;;;;;;6208236;23;20020;-92
2023/07/26 01:40:39;;;;;;;0.20;0.20;;;;;;;;;;6207165;22;20051;-90
2023/07/26 01:43:14;;;;;;;0.10;0.10;;;;;;;;;;6208118;22;20016;-89
2023/07/26 01:45:44;;;;;;;0.20;0.20;;;;;;;;;;6205766;23;20039;-92
2023/07/26 01:48:13;;;;;;;0.30;0.30;;;;;;;;;;6233422;23;20010;-89
2023/07/26 01:50:42;;;;;;;0.20;0.20;;;;;;;;;;6212022;22;20031;-91
2023/07/26 01:53:13;;;;;;;0.17;0.17;;;;;;;;;;6210336;22;20001;-90
2023/07/26 01:55:39;;;;;;;0.10;0.10;;;;;;;;;;6208912;22;20031;-92
2023/07/26 01:58:07;;;;;;;0.20;0.20;;;;;;;;;;6207950;23;20046;-91
2023/07/26 02:00:54;;;;;;;0.30;0.30;;;;;;;;;;6233644;22;20001;-90
2023/07/26 02:03:21;;;;;;;0.30;0.30;;;;;;;;;;6210377;23;20028;-90
2023/07/26 02:05:48;;;;;;;0.30;0.30;;;;;;;;;;6183408;23;20017;-90
2023/07/26 02:08:17;;;;;;;0.20;0.20;;;;;;;;;;6212046;23;20001;-91
2023/07/26 02:10:54;;;;;;;0.20;0.20;;;;;;;;;;6234641;22;20004;-89
2023/07/26 02:13:25;;;;;;;0.40;0.40;;;;;;;;;;6235683;22;20020;-89
2023/07/26 02:15:51;;;;;;;0.20;0.20;;;;;;;;;;6209581;22;20045;-90
2023/07/26 02:18:19;;;;;;;0.30;0.30;;;;;;;;;;6208680;22;20000;-93
2023/07/26 02:20:47;;;;;;;0.30;0.30;;;;;;;;;;6209352;22;20005;-90
2023/07/26 02:23:22;;;;;;;0.20;0.20;;;;;;;;;;6233922;22;20023;-91
2023/07/26 02:25:49;;;;;;;0.20;0.20;;;;;;;;;;6209562;23;20034;-91
2023/07/26 02:28:15;;;;;;;0.20;0.20;;;;;;;;;;6208654;22;20021;-91
2023/07/26 02:30:41;;;;;;;0.17;0.17;;;;;;;;;;6207058;23;20029;-90
2023/07/26 02:33:14;;;;;;;0.15;0.15;;;;;;;;;;6206805;23;20020;-91
2023/07/26 02:35:40;;;;;;;0.20;0.20;;;;;;;;;;6208895;22;20048;-90
2023/07/26 02:38:11;;;;;;;0.20;0.20;;;;;;;;;;6209382;22;20028;-90
2023/07/26 02:40:40;;;;;;;0.30;0.30;;;;;;;;;;6209914;22;20004;-91
2023/07/26 02:43:11;;;;;;;0.30;0.30;;;;;;;;;;6236109;22;20051;-91
2023/07/26 02:45:46;;;;;;;0.30;0.30;;;;;;;;;;6235564;23;20021;-92
2023/07/26 02:48:17;;;;;;;0.20;0.20;;;;;;;;;;6208836;23;20072;-90
2023/07/26 02:50:46;;;;;;;0.30;0.30;;;;;;;;;;6234192;23;20020;-92
2023/07/26 02:53:14;;;;;;;0.30;0.30;;;;;;;;;;6235319;23;20048;-91
2023/07/26 02:55:44;;;;;;;0.20;0.20;;;;;;;;;;6209723;23;20020;-90
2023/07/26 02:58:18;;;;;;;0.20;0.20;;;;;;;;;;6234934;23;20004;-89
2023/07/26 03:00:49;;;;;;;0.20;0.20;;;;;;;;;;6209279;22;20056;-92
2023/07/26 03:03:18;;;;;;;0.20;0.20;;;;;;;;;;6204816;22;20036;-90
2023/07/26 03:05:48;;;;;;;0.28;0.28;;;;;;;;;;6238277;22;20030;-92
2023/07/26 03:08:19;;;;;;;0.10;0.10;;;;;;;;;;6238013;22;20044;-90
2023/07/26 03:10:52;;;;;;;0.10;0.10;;;;;;;;;;6234532;22;20054;-89
2023/07/26 03:13:22;;;;;;;0.20;0.20;;;;;;;;;;6211767;23;20021;-90
2023/07/26 03:15:49;;;;;;;0.20;0.20;;;;;;;;;;6212721;23;20027;-92
2023/07/26 03:18:15;;;;;;;0.20;0.20;;;;;;;;;;6187773;22;20005;-89
2023/07/26 03:20:46;;;;;;;0.10;0.10;;;;;;;;;;6210954;22;20040;-90
2023/07/26 03:23:16;;;;;;;0.10;0.10;;;;;;;;;;6211040;23;20031;-93
2023/07/26 03:25:44;;;;;;;0.30;0.30;;;;;;;;;;6187017;23;19993;-87
2023/07/26 03:28:14;;;;;;;0.20;0.20;;;;;;;;;;6211849;23;20030;-89
2023/07/26 03:30:40;;;;;;;0.20;0.20;;;;;;;;;;6209974;23;20070;-89
2023/07/26 03:33:09;;;;;;;0.10;0.10;;;;;;;;;;6234785;22;20016;-90
2023/07/26 03:35:37;;;;;;;0.10;0.10;;;;;;;;;;6237303;22;20013;-91
2023/07/26 03:38:11;;;;;;;0.20;0.20;;;;;;;;;;6212606;23;20413;-90
2023/07/26 03:40:41;;;;;;;0.20;0.20;;;;;;;;;;6236550;22;20028;-88
2023/07/26 03:43:09;;;;;;;0.17;0.17;;;;;;;;;;6237418;22;20025;-89
2023/07/26 03:45:57;;;;;;;0.22;0.22;;;;;;;;;;6212632;23;20012;-89
2023/07/26 03:48:27;;;;;;;0.20;0.20;;;;;;;;;;6212204;23;20047;-90
2023/07/26 03:50:57;;;;;;;0.25;0.25;;;;;;;;;;6210748;23;20016;-91
2023/07/26 03:53:24;;;;;;;0.20;0.20;;;;;;;;;;6185689;22;20032;-90
2023/07/26 03:55:50;;;;;;;0.10;0.10;;;;;;;;;;6184650;23;20016;-91
2023/07/26 03:58:16;;;;;;;0.20;0.20;;;;;;;;;;6233487;22;20027;-91
2023/07/26 04:00:54;;;;;;;0.20;0.20;;;;;;;;;;6232943;22;20016;-91
2023/07/26 04:03:23;;;;;;;0.20;0.20;;;;;;;;;;6211439;23;20073;-90
2023/07/26 04:05:51;;;;;;;0.25;0.25;;;;;;;;;;6209816;22;20038;-89
2023/07/26 04:08:17;;;;;;;0.35;0.35;;;;;;;;;;6235685;22;20016;-91
2023/07/26 04:10:43;;;;;;;0.10;0.10;;;;;;;;;;6210699;23;20035;-91
2023/07/26 04:13:21;;;;;;;0.17;0.17;;;;;;;;;;6238909;22;20005;-90
2023/07/26 04:15:51;;;;;;;0.25;0.25;;;;;;;;;;6235090;22;20017;-90
2023/07/26 04:18:20;;;;;;;0.30;0.30;;;;;;;;;;6237476;22;20076;-90
2023/07/26 04:20:51;;;;;;;0.15;0.15;;;;;;;;;;6208841;22;20046;-90
2023/07/26 04:23:18;;;;;;;0.30;0.30;;;;;;;;;;6210096;23;20016;-90
2023/07/26 04:25:50;;;;;;;0.17;0.17;;;;;;;;;;6212018;23;20015;-91
2023/07/26 04:28:22;;;;;;;0.20;0.20;;;;;;;;;;6213090;22;20005;-91
2023/07/26 04:30:48;;;;;;;0.22;0.22;;;;;;;;;;6210360;22;20034;-90
2023/07/26 04:33:15;;;;;;;0.20;0.20;;;;;;;;;;6210881;23;20021;-91
2023/07/26 04:35:45;;;;;;;0.30;0.30;;;;;;;;;;6209795;22;20100;-90
2023/07/26 04:38:19;;;;;;;0.25;0.25;;;;;;;;;;6234150;22;20013;-91
2023/07/26 04:40:47;;;;;;;0.20;0.20;;;;;;;;;;6209896;22;20034;-90
2023/07/26 04:43:16;;;;;;;0.40;0.40;;;;;;;;;;6234460;23;20021;-91
2023/07/26 04:45:44;;;;;;;0.30;0.30;;;;;;;;;;6208314;22;20041;-89
2023/07/26 04:48:20;;;;;;;0.30;0.30;;;;;;;;;;6234212;23;20020;-91
2023/07/26 04:50:51;;;;;;;0.20;0.20;;;;;;;;;;6227099;22;20016;-91
2023/07/26 04:53:21;;;;;;;0.20;0.20;;;;;;;;;;6209787;23;20038;-92
2023/07/26 04:55:50;;;;;;;0.20;0.20;;;;;;;;;;6208745;23;20008;-90
2023/07/26 04:58:18;;;;;;;0.30;0.30;;;;;;;;;;6207241;23;20338;-90
2023/07/26 05:00:45;;;;;;;0.10;0.10;;;;;;;;;;6208686;23;20007;-92
2023/07/26 05:03:11;;;;;;;0.30;0.30;;;;;;;;;;6210752;22;20052;-90
2023/07/26 05:05:41;;;;;;;0.13;0.13;;;;;;;;;;6232766;22;20013;-92
2023/07/26 05:08:18;;;;;;;0.32;0.32;;;;;;;;;;6233176;23;20012;-89
2023/07/26 05:10:50;;;;;;;0.20;0.20;;;;;;;;;;6229748;23;20016;-86
2023/07/26 05:13:17;;;;;;;0.20;0.20;;;;;;;;;;6205692;23;20016;-86
2023/07/26 05:16:01;;;;;;;0.20;0.20;;;;;;;;;;6208472;23;20025;-87
2023/07/26 05:18:30;;;;;;;0.20;0.20;;;;;;;;;;6208797;22;20016;-85
2023/07/26 05:20:57;;;;;;;0.20;0.20;;;;;;;;;;6229028;23;20098;-88
2023/07/26 05:29:32;;;;;;;0.20;0.20;;;;;;;;;;6244572;23;20019;-90
2023/07/26 05:31:58;;;;;;;0.20;0.20;;;;;;;;;;6183762;23;20005;-83
2023/07/26 05:34:26;;;;;;;0.30;0.30;;;;;;;;;;6158632;23;20025;-87
2023/07/26 05:36:54;;;;;;;0.13;0.13;;;;;;;;;;6182009;22;20020;-90
2023/07/26 05:39:21;;;;;;;0.20;0.20;;;;;;;;;;6182736;22;20023;-87
2023/07/26 05:41:56;;;;;;;0.20;0.20;;;;;;;;;;6209594;22;20017;-88
2023/07/26 05:44:39;;;;;;;0.22;0.22;;;;;;;;;;6206627;23;20017;-87
2023/07/26 05:47:30;;;;;;;0.13;0.13;;;;;;;;;;6207145;22;20017;-86
2023/07/26 05:50:06;;;;;;;0.30;0.30;;;;;;;;;;6184986;22;20001;-86
2023/07/26 05:52:32;;;;;;;0.30;0.30;;;;;;;;;;6178798;23;20050;-87
2023/07/26 05:55:02;;;;;;;0.28;0.28;;;;;;;;;;6181279;23;20017;-89
2023/07/26 05:57:50;;;;;;;0.20;0.20;;;;;;;;;;6183784;23;20028;-89
2023/07/26 06:00:26;;;;;;;0.30;0.30;;;;;;;;;;6207939;23;20021;-87
2023/07/26 06:02:54;;;;;;;0.20;0.20;;;;;;;;;;6207780;23;20070;-87
2023/07/26 06:05:30;;;;;;;0.20;0.20;;;;;;;;;;6205953;23;20062;-87
2023/07/26 06:08:27;;;;;;;0.20;0.20;;;;;;;;;;6208876;22;20040;-88
2023/07/26 06:10:52;;;;;;;0.28;0.28;;;;;;;;;;6204716;22;20031;-90
2023/07/26 06:13:29;;;;;;;0.32;0.32;;;;;;;;;;6180613;22;20347;-89
2023/07/26 06:16:23;;;;;;;0.20;0.20;;;;;;;;;;6182636;22;20027;-90
2023/07/26 06:22:19;;;;;;;0.20;0.20;;;;;;;;;;6238746;23;20062;-85
2023/07/26 06:24:57;;;;;;;0.20;0.20;;;;;;;;;;6186079;23;20012;-87
2023/07/26 06:27:32;;;;;;;0.22;0.22;;;;;;;;;;6209515;22;20025;-87
2023/07/26 06:29:59;;;;;;;0.30;0.30;;;;;;;;;;6193049;23;20042;-84
2023/07/26 06:32:27;;;;;;;0.10;0.10;;;;;;;;;;6196858;23;20017;-85
2023/07/26 06:34:56;;;;;;;0.15;0.15;;;;;;;;;;6224882;23;20088;-86
2023/07/26 06:40:47;;;;;;;0.22;0.22;;;;;;;;;;6238451;23;20077;-87
2023/07/26 06:51:04;;;;;;;0.30;0.30;;;;;;;;;;6360347;22;20027;-84
2023/07/26 06:57:02;;;;;;;0.20;0.20;;;;;;;;;;6361891;22;20025;-85
2023/07/26 06:59:34;;;;;;;0.30;0.30;;;;;;;;;;6336838;22;20070;-93
2023/07/26 07:02:06;;;;;;;0.20;0.20;;;;;;;;;;6318108;22;20022;-89
2023/07/26 07:05:03;;;;;;;0.20;0.20;;;;;;;;;;6370838;22;20014;-89
2023/07/26 07:18:39;;;;;;;0.20;0.20;;;;;;;;;;6234415;22;20022;-93
2023/07/26 07:21:39;;;;;;;0.20;0.20;;;;;;;;;;6181294;23;20016;-93
2023/07/26 07:24:08;;;;;;;0.22;0.22;;;;;;;;;;6248748;22;20048;-90
2023/07/26 07:32:07;;;;;;;0.15;0.15;;;;;;;;;;6190885;23;20384;-90
2023/07/26 07:34:46;;;;;;;0.20;0.20;;;;;;;;;;6182102;23;20025;-90
2023/07/26 07:37:20;;;;;;;0.20;0.20;;;;;;;;;;6182036;23;20028;-93
2023/07/26 07:40:20;;;;;;;0.20;0.20;;;;;;;;;;6183638;23;20009;-90
2023/07/26 07:43:06;;;;;;;0.28;0.28;;;;;;;;;;6207734;23;20012;-88
2023/07/26 07:48:40;;;;;;;0.20;0.20;;;;;;;;;;6204628;23;20029;-91
2023/07/26 07:51:23;;;;;;;0.20;0.20;;;;;;;;;;6282733;22;20065;-93
2023/07/26 08:12:36;;;;;;;0.13;0.13;;;;;;;;;;6129363;22;20036;-94
2023/07/26 08:20:40;;;;;;;0.20;0.20;;;;;;;;;;6237945;22;20011;-91
2023/07/26 08:23:15;;;;;;;0.20;0.20;;;;;;;;;;6269600;22;20029;-90
2023/07/26 08:31:37;;;;;;;0.25;0.25;;;;;;;;;;6220487;22;20035;-91
2023/07/26 08:34:27;;;;;;;0.10;0.10;;;;;;;;;;6271729;22;20011;-90
2023/07/26 08:37:30;;;;;;;0.20;0.20;;;;;;;;;;6238535;22;20038;-91
2023/07/26 08:42:40;;;;;;;0.20;0.20;;;;;;;;;;6228383;22;20607;-86
2023/07/26 08:45:07;;;;;;;0.10;0.10;;;;;;;;;;6211685;23;20074;-86
2023/07/26 08:47:43;;;;;;;0.10;0.10;;;;;;;;;;6214015;23;20046;-83
2023/07/26 08:50:09;;;;;;;0.08;0.08;;;;;;;;;;6214393;23;20045;-85
2023/07/26 08:52:37;;;;;;;0.20;0.20;;;;;;;;;;6212249;22;20016;-87
2023/07/26 08:55:06;;;;;;;0.10;0.10;;;;;;;;;;6215243;23;20035;-88
2023/07/26 08:57:33;;;;;;;0.20;0.20;;;;;;;;;;6242745;22;20020;-91
2023/07/26 09:00:01;;;;;;;0.10;0.10;;;;;;;;;;6214467;23;20025;-88
2023/07/26 09:02:29;;;;;;;0.10;0.10;;;;;;;;;;6213789;23;20035;-86
2023/07/26 09:05:02;;;;;;;0.10;0.10;;;;;;;;;;6189825;23;20016;-86
2023/07/26 09:07:30;;;;;;;0.10;0.10;;;;;;;;;;6215239;23;20008;-89
2023/07/26 09:09:59;;;;;;;0.10;0.10;;;;;;;;;;6192304;22;20027;-87
2023/07/26 09:12:29;;;;;;;0.10;0.10;;;;;;;;;;6238479;22;20016;-87
2023/07/26 09:15:10;;;;;;;0.20;0.20;;;;;;;;;;6218362;23;20027;-89
2023/07/26 09:17:37;;;;;;;0.20;0.20;;;;;;;;;;6217660;22;20057;-89
2023/07/26 09:20:32;;;;;;;0.15;0.15;;;;;;;;;;6244261;22;20004;-92
2023/07/26 09:23:24;;;;;;;0.10;0.10;;;;;;;;;;6246115;22;20026;-93
2023/07/26 09:25:59;;;;;;;0.00;0.00;;;;;;;;;;6217148;23;20062;-87
2023/07/26 09:28:52;;;;;;;0.00;0.00;;;;;;;;;;6212588;23;20020;-88
2023/07/26 09:31:32;;;;;;;0.20;0.20;;;;;;;;;;6214604;22;20012;-89
2023/07/26 09:34:05;;;;;;;0.10;0.10;;;;;;;;;;6240404;22;20003;-88
2023/07/26 09:36:44;;;;;;;0.10;0.10;;;;;;;;;;6231595;23;20068;-88
2023/07/26 09:39:14;;;;;;;0.10;0.10;;;;;;;;;;6214484;23;20008;-89
2023/07/26 09:42:08;;;;;;;0.10;0.10;;;;;;;;;;6216190;22;20020;-89
2023/07/26 09:44:46;;;;;;;0.20;0.20;;;;;;;;;;6241189;22;20031;-89
2023/07/26 09:47:16;;;;;;;0.20;0.20;;;;;;;;;;6256079;23;20043;-90
2023/07/26 09:49:52;;;;;;;0.35;0.35;;;;;;;;;;6215510;23;20067;-88
2023/07/26 09:52:20;;;;;;;0.10;0.10;;;;;;;;;;6215237;23;20020;-88
2023/07/26 09:54:47;;;;;;;0.10;0.10;;;;;;;;;;6188295;23;20016;-88
2023/07/26 09:57:18;;;;;;;0.10;0.10;;;;;;;;;;6239902;23;20016;-88
2023/07/26 09:59:48;;;;;;;0.10;0.10;;;;;;;;;;6215139;23;20063;-88
2023/07/26 10:02:34;;;;;;;0.10;0.10;;;;;;;;;;6213212;23;20018;-89
2023/07/26 10:05:20;;;;;;;0.10;0.10;;;;;;;;;;6237066;23;20015;-89
2023/07/26 10:07:46;;;;;;;0.22;0.22;;;;;;;;;;6215463;22;20027;-88
2023/07/26 10:10:13;;;;;;;0.20;0.20;;;;;;;;;;6215326;23;20014;-92
2023/07/26 10:12:46;;;;;;;0.20;0.20;;;;;;;;;;6215991;22;20071;-90
2023/07/26 10:15:16;;;;;;;0.20;0.20;;;;;;;;;;6239931;22;20004;-91
2023/07/26 10:18:16;;;;;;;0.10;0.10;;;;;;;;;;6216088;22;20095;-93
2023/07/26 10:26:04;;;;;;;0.10;0.10;;;;;;;;;;6242137;22;20016;-90
2023/07/26 10:33:45;;;;;;;0.10;0.10;;;;;;;;;;6263558;22;20015;-91
2023/07/26 10:36:15;;;;;;;0.15;0.15;;;;;;;;;;6215688;23;20004;-94
2023/07/26 10:38:55;;;;;;;0.30;0.30;;;;;;;;;;6241567;23;20021;-91
2023/07/26 10:41:29;;;;;;;0.22;0.22;;;;;;;;;;6213686;23;20015;-92
2023/07/26 10:44:07;;;;;;;0.00;0.00;;;;;;;;;;6241659;23;20049;-88
2023/07/26 10:47:15;;;;;;;0.20;0.20;;;;;;;;;;6267293;22;20271;-89
2023/07/26 10:49:54;;;;;;;0.10;0.10;;;;;;;;;;6193020;22;20000;-92
2023/07/26 11:03:01;;;;;;;0.15;0.15;;;;;;;;;;6235372;22;20048;-91
2023/07/26 11:05:57;;;;;;;0.20;0.20;;;;;;;;;;6181958;23;20023;-89
2023/07/26 11:08:43;;;;;;;0.10;0.10;;;;;;;;;;6184439;23;20068;-91
2023/07/26 11:11:09;;;;;;;0.20;0.20;;;;;;;;;;6209490;23;20012;-88
2023/07/26 11:13:36;;;;;;;0.13;0.13;;;;;;;;;;6184692;22;20020;-87
2023/07/26 11:16:15;;;;;;;0.05;0.05;;;;;;;;;;6180361;23;20000;-86
2023/07/26 11:18:57;;;;;;;0.10;0.10;;;;;;;;;;6203953;23;20027;-87
2023/07/26 11:21:56;;;;;;;0.10;0.10;;;;;;;;;;6201561;22;20358;-86
2023/07/26 11:24:40;;;;;;;0.10;0.10;;;;;;;;;;6185204;23;20017;-87
2023/07/26 11:27:19;;;;;;;0.10;0.10;;;;;;;;;;6184911;22;20024;-90
2023/07/26 11:30:02;;;;;;;0.20;0.20;;;;;;;;;;6208950;22;20044;-92
2023/07/26 11:32:56;;;;;;;0.10;0.10;;;;;;;;;;6236317;23;20008;-91
2023/07/26 11:35:23;;;;;;;0.03;0.03;;;;;;;;;;6238924;23;20004;-88
2023/07/26 11:38:01;;;;;;;0.08;0.08;;;;;;;;;;6264674;22;20016;-88
2023/07/26 11:40:55;;;;;;;0.10;0.10;;;;;;;;;;6238313;22;20016;-87
2023/07/26 11:43:27;;;;;;;0.10;0.10;;;;;;;;;;6263240;22;20024;-90
2023/07/26 11:45:57;;;;;;;;;;;;;;;;;;6242330;23;20016;-88
2023/07/26 11:48:29;;;;;;;0.10;0.10;;;;;;;;;;6241661;23;19955;-91
2023/07/26 12:04:21;;;;;;;0.10;0.10;;;;;;;;;;6220427;22;20114;-89
2023/07/26 12:07:07;;;;;;;0.20;0.20;;;;;;;;;;6208546;22;20005;-91
2023/07/26 12:09:50;;;;;;;0.10;0.10;;;;;;;;;;6235123;22;20007;-88
2023/07/26 12:20:25;;;;;;;0.10;0.10;;;;;;;;;;6234238;22;20032;-88
2023/07/26 12:31:33;;;;;;;0.13;0.13;;;;;;;;;;6218972;22;20075;-89
2023/07/26 12:34:28;;;;;;;0.10;0.10;;;;;;;;;;6216754;23;20024;-89
2023/07/26 12:36:56;;;;;;;0.05;0.05;;;;;;;;;;6216508;22;20023;-89
2023/07/26 12:39:28;;;;;;;0.20;0.20;;;;;;;;;;6243886;22;20001;-90
2023/07/26 12:41:54;;;;;;;0.00;0.00;;;;;;;;;;6217551;22;20020;-91
2023/07/26 12:47:26;;;;;;;0.20;0.20;;;;;;;;;;6153251;22;20029;-90
2023/07/26 12:49:58;;;;;;;0.00;0.00;;;;;;;;;;6212977;22;20009;-90
2023/07/26 12:52:28;;;;;;;0.00;0.00;;;;;;;;;;6182879;22;20009;-93
2023/07/26 13:10:39;;;;;;;0.03;0.03;;;;;;;;;;6211442;22;20024;-95
2023/07/26 13:31:33;;;;;;;0.10;0.10;;;;;;;;;;6205304;22;20012;-94
2023/07/26 13:34:08;;;;;;;0.10;0.10;;;;;;;;;;6269707;22;20031;-90
2023/07/26 13:45:13;;;;;;;0.10;0.10;;;;;;;;;;6251108;22;20020;-93
2023/07/26 13:53:03;;;;;;;0.10;0.10;;;;;;;;;;6198614;22;20004;-93
2023/07/26 14:32:03;;;;;;;0.10;0.10;;;;;;;;;;6203425;22;20029;-90
2023/07/26 14:34:46;;;;;;;0.08;0.08;;;;;;;;;;6266236;22;20024;-94
2023/07/26 14:37:21;;;;;;;0.10;0.10;;;;;;;;;;6217895;22;20164;-95
2023/07/26 14:40:13;;;;;;;0.10;0.10;;;;;;;;;;6242072;22;20004;-90
2023/07/26 14:42:49;;;;;;;0.00;0.00;;;;;;;;;;6239878;22;20025;-93
2023/07/26 15:18:09;;;;;;;0.20;0.20;;;;;;;;;;6263786;22;20015;-93
2023/07/26 16:04:43;;;;;;;0.10;0.10;;;;;;;;;;6201320;22;20026;-92
2023/07/26 17:09:27;;;;;;;0.20;0.20;;;;;;;;;;6223427;22;20088;-91
2023/07/26 17:20:02;;;;;;;0.00;0.00;;;;;;;;;;6203375;22;20036;-93
2023/07/26 19:23:27;;;;;;;0.00;0.00;;;;;;;;;;6215002;22;20027;-91
2023/07/26 19:44:20;;;;;;;0.08;0.08;;;;;;;;;;6230967;22;20075;-87
2023/07/26 19:46:52;;;;;;;0.10;0.10;;;;;;;;;;6230632;22;20012;-88
2023/07/26 19:50:04;;;;;;;0.20;0.20;;;;;;;;;;6206312;23;20016;-85
2023/07/26 19:52:48;;;;;;;0.20;0.20;;;;;;;;;;6215577;22;20024;-85
2023/07/26 19:55:34;;;;;;;0.10;0.10;;;;;;;;;;6209719;23;20020;-87
2023/07/26 19:58:09;;;;;;;0.10;0.10;;;;;;;;;;6202813;23;20022;-86
2023/07/26 20:00:36;;;;;;;0.20;0.20;;;;;;;;;;6206807;23;20450;-88
2023/07/26 20:03:17;;;;;;;0.17;0.17;;;;;;;;;;6235061;22;20028;-89
2023/07/26 20:06:04;;;;;;;0.10;0.10;;;;;;;;;;6226669;23;20068;-90
2023/07/26 20:08:30;;;;;;;0.10;0.10;;;;;;;;;;6302077;22;20005;-87
2023/07/26 20:10:57;;;;;;;0.10;0.10;;;;;;;;;;6201618;23;20437;-89
2023/07/26 20:16:59;;;;;;;0.10;0.10;;;;;;;;;;6238868;23;20031;-88
2023/07/26 20:19:40;;;;;;;0.10;0.10;;;;;;;;;;6325389;22;20391;-89
2023/07/26 20:22:12;;;;;;;0.15;0.15;;;;;;;;;;6334193;22;20024;-88
2023/07/26 20:24:43;;;;;;;0.20;0.20;;;;;;;;;;6310877;22;20137;-88
2023/07/26 20:27:17;;;;;;;0.10;0.10;;;;;;;;;;6235138;22;20056;-88
2023/07/26 20:29:43;;;;;;;0.00;0.00;;;;;;;;;;6229719;23;20020;-88
2023/07/26 20:32:10;;;;;;;0.10;0.10;;;;;;;;;;6229681;23;19996;-88
2023/07/26 20:35:06;;;;;;;0.20;0.20;;;;;;;;;;6230369;22;20048;-87
2023/07/26 20:37:36;;;;;;;0.10;0.10;;;;;;;;;;6232155;23;19996;-88
2023/07/26 20:40:08;;;;;;;0.20;0.20;;;;;;;;;;6206900;23;20020;-87
2023/07/26 20:42:41;;;;;;;0.10;0.10;;;;;;;;;;6205967;22;20072;-89
2023/07/26 20:45:07;;;;;;;0.13;0.13;;;;;;;;;;6203644;22;20021;-91
2023/07/26 20:47:53;;;;;;;0.30;0.30;;;;;;;;;;6208558;23;20013;-90
2023/07/26 20:50:21;;;;;;;0.10;0.10;;;;;;;;;;6230418;23;20016;-88
2023/07/26 20:52:50;;;;;;;0.10;0.10;;;;;;;;;;6228811;23;20005;-84
2023/07/26 20:55:23;;;;;;;0.10;0.10;;;;;;;;;;6230552;22;20020;-85
2023/07/26 20:57:53;;;;;;;0.10;0.10;;;;;;;;;;6231945;22;20025;-87
2023/07/26 21:00:34;;;;;;;0.10;0.10;;;;;;;;;;6231852;23;20023;-87
2023/07/26 21:03:19;;;;;;;0.15;0.15;;;;;;;;;;6231319;23;20027;-86
2023/07/26 21:05:46;;;;;;;0.13;0.13;;;;;;;;;;6204393;23;20021;-86
2023/07/26 21:08:13;;;;;;;0.20;0.20;;;;;;;;;;6206366;23;20017;-86
2023/07/26 21:10:40;;;;;;;0.10;0.10;;;;;;;;;;6202929;23;20099;-86
2023/07/26 21:13:06;;;;;;;0.20;0.20;;;;;;;;;;6200977;23;20027;-87
2023/07/26 21:15:34;;;;;;;0.35;0.35;;;;;;;;;;6229544;23;20016;-86
2023/07/26 21:18:01;;;;;;;0.15;0.15;;;;;;;;;;6205493;23;20017;-86
2023/07/26 21:20:32;;;;;;;0.10;0.10;;;;;;;;;;6231379;22;20074;-87
2023/07/26 21:22:58;;;;;;;0.10;0.10;;;;;;;;;;6203761;23;20021;-87
2023/07/26 21:25:25;;;;;;;0.20;0.20;;;;;;;;;;6204995;23;20066;-85
2023/07/26 21:28:06;;;;;;;0.20;0.20;;;;;;;;;;6230438;23;19997;-87
2023/07/26 21:30:36;;;;;;;0.10;0.10;;;;;;;;;;6227913;23;20038;-86
2023/07/26 21:33:02;;;;;;;0.15;0.15;;;;;;;;;;6231044;23;20072;-85
2023/07/26 21:35:28;;;;;;;0.20;0.20;;;;;;;;;;6202984;23;20051;-87
2023/07/26 21:37:55;;;;;;;0.10;0.10;;;;;;;;;;6227475;23;20017;-85
2023/07/26 21:40:26;;;;;;;0.22;0.22;;;;;;;;;;6206780;23;20028;-87
2023/07/26 21:42:58;;;;;;;0.20;0.20;;;;;;;;;;6235020;22;20031;-84
2023/07/26 21:45:28;;;;;;;0.20;0.20;;;;;;;;;;6205619;22;20442;-86
2023/07/26 21:47:56;;;;;;;0.17;0.17;;;;;;;;;;6233501;22;20011;-86
2023/07/26 21:50:28;;;;;;;0.20;0.20;;;;;;;;;;6230205;22;20017;-85
2023/07/26 21:52:58;;;;;;;0.13;0.13;;;;;;;;;;6229714;23;20020;-86
2023/07/26 21:58:10;;;;;;;0.10;0.10;;;;;;;;;;6232544;22;20068;-86
2023/07/26 22:00:42;;;;;;;0.20;0.20;;;;;;;;;;6204371;22;20053;-86
2023/07/26 22:03:31;;;;;;;0.10;0.10;;;;;;;;;;6201797;22;20025;-85
2023/07/26 22:05:57;;;;;;;0.13;0.13;;;;;;;;;;6230948;22;20069;-87
2023/07/26 22:08:24;;;;;;;0.10;0.10;;;;;;;;;;6230942;22;20013;-87
2023/07/26 22:10:59;;;;;;;0.10;0.10;;;;;;;;;;6201415;22;20017;-86
2023/07/26 22:13:28;;;;;;;;;;;;;;;;;;6206306;22;20082;-86
2023/07/26 22:15:54;;;;;;;0.20;0.20;;;;;;;;;;6200720;23;19933;-86
2023/07/26 22:18:21;;;;;;;0.30;0.30;;;;;;;;;;6210128;22;20027;-87
2023/07/26 22:20:47;;;;;;;0.20;0.20;;;;;;;;;;6207091;22;20095;-85
2023/07/26 22:23:13;;;;;;;0.20;0.20;;;;;;;;;;6204399;22;20000;-88
2023/07/26 22:25:50;;;;;;;0.20;0.20;;;;;;;;;;6208494;22;20013;-86
2023/07/26 22:28:16;;;;;;;0.17;0.17;;;;;;;;;;6202409;22;20042;-85
2023/07/26 22:30:59;;;;;;;0.20;0.20;;;;;;;;;;6206073;22;20017;-85
2023/07/26 22:33:27;;;;;;;0.20;0.20;;;;;;;;;;6231850;22;20020;-85
2023/07/26 22:35:53;;;;;;;0.20;0.20;;;;;;;;;;6209845;22;20008;-86
2023/07/26 22:38:33;;;;;;;0.40;0.40;;;;;;;;;;6206078;23;20017;-85
2023/07/26 22:41:00;;;;;;;0.15;0.15;;;;;;;;;;6205811;22;20096;-85
2023/07/26 22:43:26;;;;;;;0.10;0.10;;;;;;;;;;6204628;22;20001;-83
2023/07/26 22:45:59;;;;;;;0.20;0.20;;;;;;;;;;6204525;22;20043;-84
2023/07/26 22:48:37;;;;;;;0.20;0.20;;;;;;;;;;6204047;22;20395;-86
2023/07/26 22:51:04;;;;;;;0.28;0.28;;;;;;;;;;6200793;22;20021;-84
2023/07/26 22:53:32;;;;;;;0.20;0.20;;;;;;;;;;6200984;22;20017;-88
2023/07/26 22:55:59;;;;;;;0.20;0.20;;;;;;;;;;6203651;22;20008;-88
2023/07/26 22:58:31;;;;;;;0.30;0.30;;;;;;;;;;6200249;23;20108;-87
2023/07/26 23:01:02;;;;;;;0.30;0.30;;;;;;;;;;6203530;22;20021;-85
2023/07/26 23:03:31;;;;;;;0.10;0.10;;;;;;;;;;6229279;23;20039;-86
2023/07/26 23:05:58;;;;;;;0.15;0.15;;;;;;;;;;6200423;22;20419;-86
2023/07/26 23:08:25;;;;;;;0.20;0.20;;;;;;;;;;6202398;22;20020;-87
2023/07/26 23:10:57;;;;;;;0.20;0.20;;;;;;;;;;6206596;23;20017;-85
2023/07/26 23:13:24;;;;;;;0.20;0.20;;;;;;;;;;6202307;22;20048;-86
2023/07/26 23:16:17;;;;;;;0.30;0.30;;;;;;;;;;6203641;22;20436;-89
2023/07/26 23:19:03;;;;;;;0.13;0.13;;;;;;;;;;6223155;22;20016;-87
2023/07/26 23:21:33;;;;;;;0.30;0.30;;;;;;;;;;6204781;22;20095;-85
2023/07/26 23:27:17;;;;;;;0.17;0.17;;;;;;;;;;6207339;22;20005;-86
2023/07/26 23:30:09;;;;;;;0.20;0.20;;;;;;;;;;6210178;22;20004;-87
2023/07/26 23:32:38;;;;;;;0.20;0.20;;;;;;;;;;6238217;22;20000;-84
2023/07/26 23:35:05;;;;;;;0.28;0.28;;;;;;;;;;6211163;22;20027;-86
2023/07/26 23:37:41;;;;;;;0.47;0.47;;;;;;;;;;6236098;22;20004;-86
2023/07/26 23:40:11;;;;;;;0.20;0.20;;;;;;;;;;6208753;22;20024;-89
2023/07/26 23:42:39;;;;;;;0.20;0.20;;;;;;;;;;6209821;22;20015;-86
2023/07/26 23:45:32;;;;;;;0.10;0.10;;;;;;;;;;6200688;23;20020;-88
2023/07/26 23:48:00;;;;;;;0.20;0.20;;;;;;;;;;6285050;22;20028;-85
2023/07/26 23:50:33;;;;;;;0.20;0.20;;;;;;;;;;6209380;22;20020;-87
2023/07/26 23:53:00;;;;;;;0.20;0.20;;;;;;;;;;6207194;22;20023;-86
2023/07/26 23:55:33;;;;;;;0.20;0.20;;;;;;;;;;6234423;22;20005;-87
2023/07/26 23:58:08;;;;;;;0.10;0.10;;;;;;;;;;6233734;23;20013;-85
